createdAt,value
2018-07-17T00:02:12.594Z,6.00
2018-07-17T00:04:41.472Z,6.40
2018-07-17T00:07:10.343Z,6.93
2018-07-17T00:09:39.259Z,6.30
2018-07-17T00:12:08.102Z,6.10
2018-07-17T00:14:37.001Z,6.53
2018-07-17T00:17:05.873Z,6.63
2018-07-17T00:19:34.751Z,6.17
2018-07-17T00:22:03.625Z,6.60
2018-07-17T00:24:33.098Z,5.93
2018-07-17T00:27:02.370Z,6.30
2018-07-17T00:29:31.257Z,6.13
2018-07-17T00:32:00.131Z,6.60
2018-07-17T00:34:29.013Z,6.43
2018-07-17T00:36:57.917Z,6.30
2018-07-17T00:39:26.844Z,6.97
2018-07-17T00:41:55.752Z,7.00
2018-07-17T00:44:24.634Z,7.47
2018-07-17T00:46:53.512Z,6.70
2018-07-17T00:49:22.413Z,5.93
2018-07-17T00:51:51.656Z,6.53
2018-07-17T00:54:20.617Z,7.30
2018-07-17T00:56:49.489Z,7.33
2018-07-17T00:59:18.385Z,6.90
2018-07-17T01:01:52.796Z,7.30
2018-07-17T01:04:27.249Z,7.73
2018-07-17T01:07:01.614Z,7.87
2018-07-17T01:09:35.953Z,8.27
2018-07-17T01:12:10.207Z,8.50
2018-07-17T01:14:45.666Z,8.10
2018-07-17T01:17:15.060Z,8.73
2018-07-17T01:19:43.948Z,7.70
2018-07-17T01:22:12.876Z,7.00
2018-07-17T01:24:41.794Z,6.90
2018-07-17T01:27:10.674Z,7.00
2018-07-17T01:29:39.579Z,6.83
2018-07-17T01:32:08.212Z,7.30
2018-07-17T01:34:37.013Z,6.87
2018-07-17T01:37:05.899Z,7.10
2018-07-17T01:39:34.805Z,7.30
2018-07-17T01:42:03.703Z,7.07
2018-07-17T01:44:32.598Z,7.67
2018-07-17T01:47:01.503Z,7.67
2018-07-17T01:49:30.429Z,6.87
2018-07-17T01:51:59.315Z,6.67
2018-07-17T01:54:28.231Z,7.53
2018-07-17T01:56:57.142Z,6.93
2018-07-17T01:59:26.076Z,7.53
2018-07-17T02:01:54.963Z,7.70
2018-07-17T02:04:23.872Z,7.20
2018-07-17T02:06:52.790Z,7.20
2018-07-17T02:09:21.669Z,7.53
2018-07-17T02:11:50.584Z,7.80
2018-07-17T02:14:19.498Z,6.90
2018-07-17T02:16:48.393Z,7.17
2018-07-17T02:19:17.286Z,6.80
2018-07-17T02:21:46.207Z,6.97
2018-07-17T02:24:15.110Z,6.83
2018-07-17T02:26:44.082Z,7.30
2018-07-17T02:29:12.958Z,7.70
2018-07-17T02:31:41.876Z,7.53
2018-07-17T02:34:10.767Z,8.40
2018-07-17T02:36:39.712Z,7.60
2018-07-17T02:39:09.210Z,8.37
2018-07-17T02:41:38.160Z,7.57
2018-07-17T02:44:07.075Z,8.13
2018-07-17T02:46:35.978Z,7.23
2018-07-17T02:49:04.880Z,7.43
2018-07-17T02:51:33.790Z,7.97
2018-07-17T02:54:02.738Z,8.03
2018-07-17T02:56:31.623Z,9.17
2018-07-17T02:59:00.526Z,9.23
2018-07-17T03:01:29.446Z,7.20
2018-07-17T03:03:58.338Z,8.37
2018-07-17T03:06:27.274Z,8.23
2018-07-17T03:08:56.442Z,8.20
2018-07-17T03:11:25.344Z,7.97
2018-07-17T03:13:54.244Z,8.10
2018-07-17T03:16:23.144Z,8.73
2018-07-17T03:18:52.369Z,8.40
2018-07-17T03:21:21.261Z,8.60
2018-07-17T03:23:50.167Z,8.60
2018-07-17T03:26:19.078Z,8.50
2018-07-17T03:28:47.963Z,8.30
2018-07-17T03:31:16.862Z,7.63
2018-07-17T03:33:45.767Z,8.90
2018-07-17T03:36:14.690Z,8.43
2018-07-17T03:38:43.828Z,8.20
2018-07-17T03:41:12.739Z,8.53
2018-07-17T03:43:41.410Z,8.83
2018-07-17T03:46:10.198Z,9.83
2018-07-17T03:48:39.138Z,10.03
2018-07-17T03:51:08.053Z,9.77
2018-07-17T03:53:36.970Z,9.63
2018-07-17T03:56:05.911Z,9.63
2018-07-17T03:58:34.803Z,10.07
2018-07-17T04:01:04.005Z,9.87
2018-07-17T04:03:32.896Z,10.60
2018-07-17T04:06:01.787Z,9.90
2018-07-17T04:08:30.681Z,8.97
2018-07-17T04:10:59.636Z,9.63
2018-07-17T04:13:28.562Z,10.07
2018-07-17T04:15:57.427Z,9.83
2018-07-17T04:18:26.321Z,9.40
2018-07-17T04:20:55.210Z,9.33
2018-07-17T04:23:24.130Z,9.60
2018-07-17T04:25:53.038Z,10.10
2018-07-17T04:28:21.941Z,9.53
2018-07-17T04:30:50.850Z,10.83
2018-07-17T04:33:19.758Z,10.07
2018-07-17T04:35:48.726Z,11.20
2018-07-17T04:38:17.646Z,10.90
2018-07-17T04:40:46.559Z,11.03
2018-07-17T04:43:15.484Z,12.00
2018-07-17T04:45:44.374Z,11.37
2018-07-17T04:48:13.298Z,13.27
2018-07-17T04:50:42.257Z,11.93
2018-07-17T04:53:11.155Z,11.73
2018-07-17T04:55:40.074Z,12.17
2018-07-17T04:58:08.998Z,12.97
2018-07-17T05:00:37.885Z,12.57
2018-07-17T05:03:07.194Z,12.27
2018-07-17T05:05:36.098Z,13.07
2018-07-17T05:08:05.299Z,12.43
2018-07-17T05:10:34.207Z,11.67
2018-07-17T05:13:03.191Z,13.37
2018-07-17T05:15:32.043Z,12.53
2018-07-17T05:18:00.987Z,12.80
2018-07-17T05:20:29.915Z,13.83
2018-07-17T05:22:59.232Z,13.73
2018-07-17T05:25:28.095Z,14.23
2018-07-17T05:27:56.998Z,14.97
2018-07-17T05:30:25.895Z,16.50
2018-07-17T05:32:54.922Z,14.67
2018-07-17T05:35:23.875Z,15.33
2018-07-17T05:37:52.731Z,16.00
2018-07-17T05:40:21.627Z,15.57
2018-07-17T05:42:50.562Z,15.97
2018-07-17T05:45:19.494Z,16.53
2018-07-17T05:47:48.631Z,17.13
2018-07-17T05:50:17.526Z,15.80
2018-07-17T05:52:46.447Z,15.87
2018-07-17T05:55:15.427Z,15.83
2018-07-17T05:57:44.338Z,15.50
2018-07-17T06:00:13.284Z,14.63
2018-07-17T06:02:42.198Z,14.57
2018-07-17T06:05:11.102Z,14.93
2018-07-17T06:07:40.015Z,15.53
2018-07-17T06:10:08.926Z,13.90
2018-07-17T06:12:37.838Z,14.30
2018-07-17T06:15:07.130Z,13.93
2018-07-17T06:17:36.054Z,13.17
2018-07-17T06:20:06.863Z,12.97
2018-07-17T06:22:35.827Z,13.03
2018-07-17T06:25:05.592Z,12.73
2018-07-17T06:27:34.468Z,13.70
2018-07-17T06:30:03.370Z,13.43
2018-07-17T06:32:32.318Z,12.93
2018-07-17T06:35:01.219Z,13.97
2018-07-17T06:37:30.120Z,14.03
2018-07-17T06:39:59.247Z,13.40
2018-07-17T06:42:28.134Z,12.87
2018-07-17T06:44:57.039Z,13.10
2018-07-17T06:47:26.254Z,12.83
2018-07-17T06:49:55.173Z,12.67
2018-07-17T06:52:24.092Z,12.57
2018-07-17T06:54:53.001Z,11.37
2018-07-17T06:57:21.941Z,12.33
2018-07-17T06:59:50.817Z,11.80
2018-07-17T07:02:19.732Z,11.47
2018-07-17T07:04:48.647Z,11.53
2018-07-17T07:07:17.569Z,11.70
2018-07-17T07:09:46.636Z,11.63
2018-07-17T07:12:15.551Z,11.67
2018-07-17T07:14:44.510Z,11.70
2018-07-17T07:17:13.407Z,10.57
2018-07-17T07:19:42.746Z,10.30
2018-07-17T07:22:11.642Z,10.37
2018-07-17T07:24:40.555Z,9.57
2018-07-17T07:27:09.548Z,9.65
2018-07-17T07:29:38.462Z,9.48
2018-07-17T07:32:07.354Z,10.43
2018-07-17T07:34:36.270Z,9.65
2018-07-17T07:37:05.382Z,10.28
2018-07-17T07:39:34.309Z,9.98
2018-07-17T07:42:03.203Z,9.63
2018-07-17T07:44:32.111Z,8.88
2018-07-17T07:47:01.007Z,8.98
2018-07-17T07:49:29.922Z,9.60
2018-07-17T07:51:58.842Z,8.98
2018-07-17T07:54:27.816Z,9.35
2018-07-17T07:56:56.715Z,8.55
2018-07-17T07:59:25.900Z,8.20
2018-07-17T08:01:54.798Z,9.00
2018-07-17T08:04:23.702Z,8.20
2018-07-17T08:06:52.710Z,8.05
2018-07-17T08:09:21.618Z,7.30
2018-07-17T08:11:50.539Z,6.45
2018-07-17T08:14:19.413Z,5.75
2018-07-17T08:16:48.298Z,5.37
2018-07-17T08:19:17.198Z,5.78
2018-07-17T08:21:46.095Z,5.20
2018-07-17T08:24:15.009Z,5.70
2018-07-17T08:26:43.895Z,5.50
2018-07-17T08:29:12.796Z,5.22
2018-07-17T08:31:41.687Z,5.17
2018-07-17T08:34:10.677Z,4.87
2018-07-17T08:36:40.023Z,5.45
2018-07-17T08:39:09.697Z,4.87
2018-07-17T08:41:38.826Z,4.65
2018-07-17T08:44:07.894Z,4.80
2018-07-17T08:46:36.811Z,4.53
2018-07-17T08:49:05.767Z,4.00
2018-07-17T08:51:34.615Z,3.92
2018-07-17T08:54:03.569Z,4.12
2018-07-17T08:56:32.434Z,4.55
2018-07-17T08:59:01.320Z,4.90
2018-07-17T09:01:30.287Z,3.85
2018-07-17T09:03:59.182Z,3.83
2018-07-17T09:06:28.091Z,3.80
2018-07-17T09:08:56.995Z,3.50
2018-07-17T09:11:25.887Z,3.75
2018-07-17T09:13:55.208Z,3.77
2018-07-17T09:16:24.107Z,3.55
2018-07-17T09:18:52.988Z,3.10
2018-07-17T09:21:21.929Z,3.40
2018-07-17T09:23:50.768Z,3.12
2018-07-17T09:26:19.679Z,2.85
2018-07-17T09:28:49.092Z,3.17
2018-07-17T09:31:18.458Z,2.58
2018-07-17T09:33:47.350Z,3.10
2018-07-17T09:36:16.280Z,2.90
2018-07-17T09:38:45.197Z,3.22
2018-07-17T09:41:14.104Z,2.67
2018-07-17T09:43:42.994Z,3.00
2018-07-17T09:46:11.908Z,2.62
2018-07-17T09:48:40.829Z,3.00
2018-07-17T09:51:09.832Z,2.77
2018-07-17T09:53:38.723Z,2.95
2018-07-17T09:56:07.646Z,2.98
2018-07-17T09:58:36.545Z,3.02
2018-07-17T10:01:11.141Z,2.70
2018-07-17T10:03:48.858Z,2.40
2018-07-17T10:06:17.805Z,2.52
2018-07-17T10:08:46.654Z,3.15
2018-07-17T10:11:15.332Z,2.77
2018-07-17T10:13:44.111Z,2.80
2018-07-17T10:16:12.999Z,2.50
2018-07-17T10:18:41.882Z,2.80
2018-07-17T10:21:11.044Z,2.33
2018-07-17T10:23:39.931Z,2.47
2018-07-17T10:26:08.822Z,2.50
2018-07-17T10:28:37.711Z,2.40
2018-07-17T10:31:06.863Z,2.45
2018-07-17T10:33:35.787Z,2.33
2018-07-17T10:36:04.751Z,2.40
2018-07-17T10:38:33.661Z,2.33
2018-07-17T10:41:02.548Z,2.37
2018-07-17T10:43:31.693Z,2.22
2018-07-17T10:46:00.902Z,2.20
2018-07-17T10:48:29.826Z,2.40
2018-07-17T10:50:59.455Z,2.50
2018-07-17T10:53:28.339Z,2.30
2018-07-17T10:55:57.248Z,2.70
2018-07-17T10:58:26.122Z,2.40
2018-07-17T11:00:55.029Z,2.12
2018-07-17T11:03:24.176Z,2.47
2018-07-17T11:05:53.071Z,2.02
2018-07-17T11:08:21.971Z,2.20
2018-07-17T11:10:50.866Z,2.50
2018-07-17T11:13:19.796Z,2.55
2018-07-17T11:15:48.643Z,2.33
2018-07-17T11:18:17.543Z,2.55
2018-07-17T11:20:46.426Z,2.40
2018-07-17T11:23:15.315Z,2.75
2018-07-17T11:25:44.218Z,2.55
2018-07-17T11:28:13.135Z,2.70
2018-07-17T11:30:42.039Z,2.50
2018-07-17T11:33:10.954Z,2.37
2018-07-17T11:35:39.833Z,2.52
2018-07-17T11:38:08.744Z,2.42
2018-07-17T11:40:37.634Z,2.90
2018-07-17T11:43:06.579Z,2.33
2018-07-17T11:45:35.464Z,2.50
2018-07-17T11:48:04.373Z,2.45
2018-07-17T11:50:33.270Z,2.65
2018-07-17T11:53:02.175Z,2.80
2018-07-17T11:55:31.582Z,2.70
2018-07-17T11:58:00.517Z,2.60
2018-07-17T12:00:29.415Z,2.70
2018-07-17T12:02:58.335Z,2.58
2018-07-17T12:05:27.264Z,2.70
2018-07-17T12:07:56.213Z,2.67
2018-07-17T12:10:25.111Z,2.45
2018-07-17T12:12:54.042Z,2.62
2018-07-17T12:15:22.904Z,2.47
2018-07-17T12:17:51.799Z,2.70
2018-07-17T12:20:20.801Z,2.47
2018-07-17T12:22:49.592Z,2.35
2018-07-17T12:25:18.474Z,2.42
2018-07-17T12:27:47.381Z,2.60
2018-07-17T12:30:16.264Z,2.50
2018-07-17T12:32:45.179Z,2.37
2018-07-17T12:35:14.126Z,2.60
2018-07-17T12:37:43.014Z,2.60
2018-07-17T12:40:11.915Z,2.55
2018-07-17T12:42:40.817Z,2.50
2018-07-17T12:45:09.710Z,2.80
2018-07-17T12:47:38.615Z,2.70
2018-07-17T12:50:07.494Z,2.37
2018-07-17T12:52:36.402Z,2.52
2018-07-17T12:55:05.485Z,2.50
2018-07-17T12:57:34.421Z,2.52
2018-07-17T13:00:03.344Z,2.75
2018-07-17T13:02:32.236Z,2.22
2018-07-17T13:05:01.116Z,2.52
2018-07-17T13:07:30.030Z,2.72
2018-07-17T13:09:58.910Z,2.33
2018-07-17T13:12:28.113Z,2.50
2018-07-17T13:14:57.038Z,2.95
2018-07-17T13:17:25.972Z,2.60
2018-07-17T13:19:54.822Z,2.70
2018-07-17T13:22:23.768Z,3.10
2018-07-17T13:24:52.659Z,3.12
2018-07-17T13:27:21.621Z,2.80
2018-07-17T13:29:50.518Z,2.80
2018-07-17T13:32:19.425Z,3.00
2018-07-17T13:34:48.670Z,3.05
2018-07-17T13:37:17.562Z,2.90
2018-07-17T13:39:46.450Z,3.15
2018-07-17T13:42:15.334Z,3.27
2018-07-17T13:44:44.489Z,3.05
2018-07-17T13:47:13.330Z,3.10
2018-07-17T13:49:42.209Z,3.25
2018-07-17T13:52:11.097Z,3.47
2018-07-17T13:54:39.998Z,3.05
2018-07-17T13:57:08.978Z,3.15
2018-07-17T13:59:38.088Z,3.37
2018-07-17T14:02:06.976Z,3.10
2018-07-17T14:04:36.379Z,3.47
2018-07-17T14:07:05.356Z,3.25
2018-07-17T14:09:34.282Z,3.27
2018-07-17T14:12:03.163Z,3.33
2018-07-17T14:14:32.077Z,3.00
2018-07-17T14:17:00.962Z,3.27
2018-07-17T14:19:29.857Z,3.52
2018-07-17T14:21:58.742Z,3.50
2018-07-17T14:24:27.637Z,3.33
2018-07-17T14:26:56.521Z,3.12
2018-07-17T14:29:25.674Z,3.42
2018-07-17T14:31:54.563Z,3.27
2018-07-17T14:34:23.459Z,3.40
2018-07-17T14:36:52.358Z,2.80
2018-07-17T14:39:21.270Z,3.45
2018-07-17T14:41:50.198Z,3.25
2018-07-17T14:44:19.090Z,3.35
2018-07-17T14:46:48.033Z,3.17
2018-07-17T14:49:16.917Z,3.40
2018-07-17T14:51:45.841Z,3.12
2018-07-17T14:54:14.732Z,3.20
2018-07-17T14:56:43.631Z,3.50
2018-07-17T14:59:12.560Z,3.52
2018-07-17T15:01:41.441Z,3.30
2018-07-17T15:04:10.336Z,3.37
2018-07-17T15:06:40.214Z,3.30
2018-07-17T15:09:09.845Z,3.20
2018-07-17T15:11:38.734Z,3.75
2018-07-17T15:14:07.633Z,3.67
2018-07-17T15:16:36.948Z,3.47
2018-07-17T15:19:05.917Z,3.20
2018-07-17T15:21:34.790Z,3.20
2018-07-17T15:24:03.695Z,3.50
2018-07-17T15:26:32.577Z,3.40
2018-07-17T15:29:01.506Z,3.30
2018-07-17T15:31:30.398Z,3.45
2018-07-17T15:33:59.299Z,3.22
2018-07-17T15:36:28.211Z,3.30
2018-07-17T15:38:57.150Z,3.35
2018-07-17T15:41:26.038Z,3.45
2018-07-17T15:43:54.932Z,3.45
2018-07-17T15:46:23.872Z,3.37
2018-07-17T15:48:52.799Z,3.40
2018-07-17T15:51:21.678Z,3.40
2018-07-17T15:53:50.575Z,3.58
2018-07-17T15:56:19.487Z,3.55
2018-07-17T15:58:48.446Z,3.10
2018-07-17T16:01:18.391Z,3.00
2018-07-17T16:03:47.675Z,3.37
2018-07-17T16:06:16.726Z,3.37
2018-07-17T16:08:45.586Z,3.72
2018-07-17T16:11:14.721Z,3.15
2018-07-17T16:13:43.926Z,3.17
2018-07-17T16:16:12.781Z,3.27
2018-07-17T16:18:43.232Z,3.22
2018-07-17T16:21:12.544Z,3.33
2018-07-17T16:23:41.462Z,3.62
2018-07-17T16:26:10.357Z,3.20
2018-07-17T16:28:39.242Z,3.60
2018-07-17T16:31:08.160Z,2.85
2018-07-17T16:33:37.102Z,3.12
2018-07-17T16:36:10.262Z,3.50
2018-07-17T16:38:39.449Z,3.22
2018-07-17T16:41:08.358Z,3.25
2018-07-17T16:43:37.241Z,3.17
2018-07-17T16:46:06.185Z,3.20
2018-07-17T16:48:35.086Z,3.40
2018-07-17T16:51:03.985Z,3.40
2018-07-17T16:53:32.870Z,3.33
2018-07-17T16:56:01.787Z,3.17
2018-07-17T16:58:30.674Z,3.55
2018-07-17T17:00:59.578Z,3.55
2018-07-17T17:03:28.457Z,3.33
2018-07-17T17:05:57.366Z,3.20
2018-07-17T17:08:26.256Z,3.02
2018-07-17T17:10:55.168Z,3.65
2018-07-17T17:13:24.063Z,3.40
2018-07-17T17:15:52.964Z,3.20
2018-07-17T17:18:21.617Z,3.40
2018-07-17T17:20:50.416Z,3.30
2018-07-17T17:23:19.265Z,3.40
2018-07-17T17:25:48.202Z,3.50
2018-07-17T17:28:17.142Z,3.27
2018-07-17T17:30:46.068Z,3.40
2018-07-17T17:33:14.962Z,3.40
2018-07-17T17:35:43.875Z,3.75
2018-07-17T17:38:12.769Z,3.33
2018-07-17T17:40:41.724Z,3.20
2018-07-17T17:43:10.538Z,3.27
2018-07-17T17:45:39.734Z,3.33
2018-07-17T17:48:08.623Z,3.20
2018-07-17T17:50:37.542Z,3.50
2018-07-17T17:53:06.434Z,3.30
2018-07-17T17:55:35.345Z,2.98
2018-07-17T17:58:04.228Z,3.50
2018-07-17T18:00:33.123Z,3.22
2018-07-17T18:03:02.012Z,3.17
2018-07-17T18:05:30.916Z,3.08
2018-07-17T18:07:59.834Z,3.12
2018-07-17T18:10:28.752Z,3.20
2018-07-17T18:12:57.634Z,3.37
2018-07-17T18:15:26.531Z,3.20
2018-07-17T18:17:55.414Z,3.02
2018-07-17T18:20:24.316Z,3.12
2018-07-17T18:22:53.202Z,3.67
2018-07-17T18:25:22.126Z,3.47
2018-07-17T18:27:51.015Z,4.00
2018-07-17T18:30:19.927Z,3.90
2018-07-17T18:32:48.967Z,3.90
2018-07-17T18:35:17.861Z,4.20
2018-07-17T18:37:46.927Z,4.03
2018-07-17T18:40:16.198Z,4.25
2018-07-17T18:42:45.091Z,4.60
2018-07-17T18:45:13.987Z,4.62
2018-07-17T18:47:42.971Z,4.90
2018-07-17T18:50:13.291Z,4.58
2018-07-17T18:52:40.771Z,4.97
2018-07-17T18:55:09.666Z,4.78
2018-07-17T18:57:38.583Z,5.03
2018-07-17T19:00:07.893Z,4.70
2018-07-17T19:02:36.790Z,4.87
2018-07-17T19:05:05.954Z,4.63
2018-07-17T19:07:34.863Z,4.90
2018-07-17T19:10:04.238Z,4.67
2018-07-17T19:12:33.242Z,4.83
2018-07-17T19:15:02.154Z,4.30
2018-07-17T19:17:31.067Z,4.77
2018-07-17T19:19:59.967Z,4.73
2018-07-17T19:22:28.867Z,4.43
2018-07-17T19:24:57.755Z,4.57
2018-07-17T19:27:26.675Z,4.80
2018-07-17T19:29:55.567Z,4.73
2018-07-17T19:32:24.819Z,4.90
2018-07-17T19:34:53.725Z,4.60
2018-07-17T19:37:22.910Z,4.27
2018-07-17T19:39:51.809Z,4.40
2018-07-17T19:42:20.716Z,5.00
2018-07-17T19:44:49.613Z,4.60
2018-07-17T19:47:18.509Z,5.07
2018-07-17T19:49:47.482Z,4.67
2018-07-17T19:52:16.375Z,4.83
2018-07-17T19:54:45.265Z,4.90
2018-07-17T19:57:14.587Z,5.23
2018-07-17T19:59:43.772Z,4.80
2018-07-17T20:02:12.643Z,5.33
2018-07-17T20:04:41.536Z,5.43
2018-07-17T20:07:10.491Z,5.57
2018-07-17T20:09:39.418Z,5.13
2018-07-17T20:12:08.510Z,5.50
2018-07-17T20:14:37.401Z,5.43
2018-07-17T20:17:06.303Z,5.90
2018-07-17T20:19:36.444Z,5.63
2018-07-17T20:22:05.582Z,5.27
2018-07-17T20:24:34.476Z,5.57
2018-07-17T20:27:03.374Z,5.33
2018-07-17T20:29:33.400Z,5.73
2018-07-17T20:32:02.294Z,5.33
2018-07-17T20:34:31.240Z,5.47
2018-07-17T20:37:00.134Z,6.00
2018-07-17T20:39:29.019Z,6.03
2018-07-17T20:41:58.225Z,6.30
2018-07-17T20:44:27.122Z,5.70
2018-07-17T20:46:56.019Z,6.10
2018-07-17T20:49:24.915Z,6.33
2018-07-17T20:51:53.814Z,6.10
2018-07-17T20:54:22.708Z,5.53
2018-07-17T20:56:52.627Z,6.33
2018-07-17T20:59:21.601Z,5.60
2018-07-17T21:01:50.511Z,6.47
2018-07-17T21:04:19.397Z,7.07
2018-07-17T21:06:48.289Z,6.97
2018-07-17T21:09:17.190Z,7.27
2018-07-17T21:11:46.074Z,7.23
2018-07-17T21:14:15.014Z,7.37
2018-07-17T21:16:43.923Z,7.47
2018-07-17T21:19:12.837Z,7.60
2018-07-17T21:21:41.722Z,7.47
2018-07-17T21:24:10.704Z,6.87
2018-07-17T21:26:39.683Z,8.00
2018-07-17T21:29:08.578Z,7.47
2018-07-17T21:31:37.463Z,7.77
2018-07-17T21:34:06.394Z,8.03
2018-07-17T21:36:35.312Z,8.13
2018-07-17T21:39:07.102Z,7.93
2018-07-17T21:41:36.214Z,8.10
2018-07-17T21:44:05.122Z,8.40
2018-07-17T21:46:34.011Z,8.93
2018-07-17T21:49:02.922Z,9.07
2018-07-17T21:51:31.823Z,9.77
2018-07-17T21:54:00.740Z,8.97
2018-07-17T21:56:29.643Z,9.30
2018-07-17T21:58:58.549Z,9.60
2018-07-17T22:01:27.449Z,10.57
2018-07-17T22:03:56.362Z,10.00
2018-07-17T22:06:25.294Z,10.60
2018-07-17T22:08:54.201Z,10.57
2018-07-17T22:11:23.095Z,10.47
2018-07-17T22:13:52.000Z,10.47
2018-07-17T22:16:20.902Z,11.30
2018-07-17T22:18:49.806Z,11.73
2018-07-17T22:21:19.049Z,11.97
2018-07-17T22:23:47.958Z,12.73
2018-07-17T22:26:16.873Z,13.10
2018-07-17T22:28:45.790Z,13.57
2018-07-17T22:31:14.690Z,13.93
2018-07-17T22:33:43.667Z,14.17
2018-07-17T22:36:12.538Z,13.17
2018-07-17T22:38:41.457Z,14.90
2018-07-17T22:41:10.394Z,14.70
2018-07-17T22:43:39.410Z,14.90
2018-07-17T22:46:08.318Z,15.53
2018-07-17T22:48:37.221Z,15.70
2018-07-17T22:51:06.548Z,16.13
2018-07-17T22:53:35.454Z,16.47
2018-07-17T22:56:04.396Z,15.93
2018-07-17T22:58:33.304Z,15.20
2018-07-17T23:01:02.278Z,16.17
2018-07-17T23:03:31.191Z,15.90
2018-07-17T23:06:00.326Z,16.20
2018-07-17T23:08:29.244Z,16.37
2018-07-17T23:10:58.133Z,16.73
2018-07-17T23:13:27.046Z,17.17
2018-07-17T23:15:55.942Z,17.30
2018-07-17T23:18:24.863Z,17.57
2018-07-17T23:20:53.781Z,17.23
2018-07-17T23:23:22.694Z,17.73
2018-07-17T23:25:51.613Z,18.17
2018-07-17T23:28:20.506Z,17.50
2018-07-17T23:30:49.417Z,17.80
2018-07-17T23:33:18.331Z,17.80
2018-07-17T23:35:47.242Z,18.53
2018-07-17T23:38:16.151Z,19.90
2018-07-17T23:40:45.410Z,18.40
2018-07-17T23:43:14.298Z,18.77
2018-07-17T23:45:43.215Z,19.27
2018-07-17T23:48:12.210Z,18.97
2018-07-17T23:50:41.110Z,20.27
2018-07-17T23:53:10.070Z,20.83
2018-07-17T23:55:38.990Z,20.20
2018-07-17T23:58:07.882Z,20.77
